KEWR/EWR METAR and TAF weather

Enter ICAO airport designator
Station Type Date Time Source
KEWR METAR 2019/07/20 04:51 UTC NOAA

KEWR 200451Z 25009KT 10SM BKN250 30/24 A2985 RMK AO2 SLP106 T03000244 403500222


Station Type Date Time Source
KEWR Decoded METAR 2019/07/20 04:51 UTC NOAA

NEWARK INTERNATIONAL AIRPORT, NJ, United States (KEWR) 40-41N 74-10W 7M
Jul 20, 2019 - 12:51 AM EDT / 2019.07.20 0451 UTC
Wind: from the WSW (250 degrees) at 10 MPH (9 KT):0
Visibility: 10 mile(s):0
Sky conditions: mostly cloudy
Temperature: 86.0 F (30.0 C)
Heat index: 95.9 F (35.5 C):1
Dew Point: 75.9 F (24.4 C)
Relative Humidity: 72%
Pressure (altimeter): 29.85 in. Hg (1010 hPa)
ob: KEWR 200451Z 25009KT 10SM BKN250 30/24 A2985 RMK AO2 SLP106 T03000244 403500222
cycle: 5

Station Type Date Time Source
KEWR TAF 2019/07/20 03:54 UTC NOAA

TAF
AMD KEWR 200253Z 2003/2106 24010KT P6SM FEW050 SCT250
FM200800 26006KT P6SM SCT250
FM201200 29008KT P6SM FEW050 SCT250
FM201800 26011G18KT P6SM SCT060 SCT250
FM210100 26008KT P6SM SCT060 SCT250

Example: see airport list